TimePDT,TemperatureF,Dew PointF,Humidity,Sea Level PressureIn,VisibilityMPH,Wind Direction,Wind SpeedMPH,Gust SpeedMPH,PrecipitationIn,Events,Conditions,WindDirDegrees,DateUTC
12:55 AM,62.1,59.0,90,29.91,10.0,South,8.1,-,0.01,Rain,Light Rain,170,2013-09-02 07:55:00
1:55 AM,61.0,57.9,90,29.91,10.0,SSE,9.2,-,0.03,,Mostly Cloudy,150,2013-09-02 08:55:00
2:55 AM,61.0,57.9,90,29.89,10.0,South,8.1,-,N/A,,Mostly Cloudy,170,2013-09-02 09:55:00
3:55 AM,62.1,57.0,84,29.88,10.0,SSE,6.9,-,0.00,Rain,Light Rain,150,2013-09-02 10:55:00
4:55 AM,61.0,57.9,90,29.87,10.0,South,3.5,-,0.00,,Overcast,190,2013-09-02 11:55:00
5:55 AM,62.1,57.0,84,29.88,10.0,SSE,8.1,-,0.00,,Overcast,160,2013-09-02 12:55:00
6:55 AM,62.1,57.0,84,29.90,10.0,SSE,8.1,-,0.00,,Overcast,160,2013-09-02 13:55:00
7:55 AM,62.1,57.9,86,29.92,10.0,South,5.8,-,N/A,,Mostly Cloudy,170,2013-09-02 14:55:00
8:55 AM,64.9,59.0,81,29.94,10.0,South,4.6,-,N/A,,Overcast,190,2013-09-02 15:55:00
9:55 AM,69.1,57.9,68,29.93,10.0,SSE,9.2,-,N/A,,Overcast,160,2013-09-02 16:55:00
10:55 AM,71.1,57.9,63,29.91,10.0,SSE,11.5,19.6,N/A,,Mostly Cloudy,150,2013-09-02 17:55:00
11:55 AM,71.1,57.0,61,29.91,10.0,SSE,16.1,23.0,N/A,,Clear,160,2013-09-02 18:55:00
12:55 PM,73.0,57.0,57,29.90,10.0,SSE,13.8,19.6,N/A,,Clear,150,2013-09-02 19:55:00
1:55 PM,73.0,55.9,55,29.88,10.0,SE,18.4,27.6,N/A,,Partly Cloudy,140,2013-09-02 20:55:00
2:55 PM,70.0,55.9,61,29.90,10.0,SSE,20.7,32.2,N/A,,Clear,160,2013-09-02 21:55:00
3:55 PM,69.1,54.0,58,29.89,10.0,SSE,17.3,28.8,N/A,,Clear,160,2013-09-02 22:55:00
4:55 PM,72.0,48.9,44,29.86,10.0,SSE,20.7,28.8,N/A,,Clear,160,2013-09-02 23:55:00
5:55 PM,73.0,46.9,39,29.86,10.0,SSE,16.1,-,N/A,,Clear,160,2013-09-03 00:55:00
6:55 PM,72.0,41.0,33,29.86,10.0,SSE,16.1,-,N/A,,Clear,160,2013-09-03 01:55:00
7:55 PM,64.9,42.1,43,29.89,10.0,SSE,12.7,-,N/A,,Clear,160,2013-09-03 02:55:00
8:55 PM,64.0,37.9,38,29.91,10.0,South,9.2,-,N/A,,Clear,170,2013-09-03 03:55:00
9:55 PM,60.1,41.0,49,29.93,10.0,SSE,3.5,-,N/A,,Clear,160,2013-09-03 04:55:00
10:55 PM,60.1,41.0,49,29.92,10.0,South,4.6,-,N/A,,Clear,180,2013-09-03 05:55:00
11:55 PM,62.1,39.9,44,29.92,10.0,SSW,3.5,-,N/A,,Mostly Cloudy,210,2013-09-03 06:55:00